Time;durP1;ratioP1;P1;durP2;ratioP2;P2;SDS_P1;SDS_P2;PMS_P1;PMS_P2;Temp;Humidity;BMP_temperature;BMP_pressure;BME280_temperature;BME280_humidity;BME280_pressure;Samples;Min_cycle;Max_cycle;Signal;HPM_P1;HPM_P2
2021/11/29 00:01:18;;;;;;;12.10;10.02;;;;;;;1.10;100.00;95073.00;5075065;28;20409;-62
2021/11/29 00:03:44;;;;;;;13.93;10.75;;;;;;;1.10;100.00;95070.44;5092005;28;20393;-62
2021/11/29 00:06:09;;;;;;;12.90;10.68;;;;;;;1.16;100.00;95067.81;5091412;28;20410;-62
2021/11/29 00:08:35;;;;;;;11.50;9.73;;;;;;;1.22;100.00;95073.91;5091638;28;20390;-62
2021/11/29 00:11:00;;;;;;;11.43;9.73;;;;;;;1.20;100.00;95075.91;5106282;28;20479;-62
2021/11/29 00:13:26;;;;;;;10.37;9.00;;;;;;;1.13;100.00;95072.56;5108311;28;20438;-62
2021/11/29 00:15:51;;;;;;;8.15;7.30;;;;;;;0.98;100.00;95079.84;5091379;28;20394;-59
2021/11/29 00:18:17;;;;;;;8.60;7.50;;;;;;;1.00;100.00;95094.13;5091085;28;20398;-62
2021/11/29 00:20:44;;;;;;;7.78;6.90;;;;;;;0.87;100.00;95086.44;5106970;28;20392;-62
2021/11/29 00:23:11;;;;;;;8.07;6.88;;;;;;;0.92;100.00;95086.63;5108241;28;20388;-60
2021/11/29 00:25:37;;;;;;;12.82;10.15;;;;;;;0.92;100.00;95084.03;5110877;28;20401;-62
2021/11/29 00:28:02;;;;;;;12.85;10.68;;;;;;;0.75;100.00;95091.47;5101261;28;20404;-62
2021/11/29 00:30:28;;;;;;;14.25;11.10;;;;;;;0.80;100.00;95085.69;5072897;28;20412;-62
2021/11/29 00:32:53;;;;;;;13.38;11.00;;;;;;;0.84;100.00;95092.00;5107662;28;20396;-62
2021/11/29 00:35:19;;;;;;;13.97;11.40;;;;;;;0.93;100.00;95093.34;5098827;28;20400;-62
2021/11/29 00:37:44;;;;;;;14.93;11.53;;;;;;;0.65;100.00;95098.88;5110444;28;20409;-62
2021/11/29 00:40:11;;;;;;;15.13;12.30;;;;;;;0.73;100.00;95105.56;5107749;28;20389;-60
2021/11/29 00:42:37;;;;;;;17.17;12.97;;;;;;;0.79;100.00;95102.94;5102511;28;20939;-62
2021/11/29 00:45:05;;;;;;;16.77;13.43;;;;;;;0.70;100.00;95119.66;5091023;28;20451;-63
2021/11/29 00:47:30;;;;;;;17.23;13.10;;;;;;;0.71;100.00;95110.16;5091914;28;20394;-63
2021/11/29 00:49:56;;;;;;;17.60;13.43;;;;;;;0.54;100.00;95109.03;5091085;28;20390;-63
2021/11/29 00:52:22;;;;;;;19.87;14.57;;;;;;;0.46;100.00;95111.84;5090320;28;20482;-63
2021/11/29 00:54:47;;;;;;;19.03;14.83;;;;;;;0.61;100.00;95110.59;5106234;28;20844;-62
2021/11/29 00:57:13;;;;;;;21.13;15.10;;;;;;;0.49;100.00;95111.44;5108943;28;20790;-63
2021/11/29 00:59:38;;;;;;;19.00;15.05;;;;;;;0.40;100.00;95116.03;5111141;28;20384;-64
2021/11/29 01:02:05;;;;;;;20.47;14.90;;;;;;;0.50;100.00;95118.97;5108985;28;20396;-62
2021/11/29 01:04:31;;;;;;;21.00;14.57;;;;;;;0.64;100.00;95122.28;5107678;28;20985;-64
2021/11/29 01:06:56;;;;;;;20.13;15.27;;;;;;;0.55;100.00;95121.72;5107208;28;20491;-64
2021/11/29 01:09:22;;;;;;;18.97;14.47;;;;;;;0.60;100.00;95128.84;5090860;28;20401;-63
2021/11/29 01:11:47;;;;;;;20.57;14.90;;;;;;;0.56;100.00;95123.28;5090791;28;20481;-64
2021/11/29 01:14:14;;;;;;;20.48;14.55;;;;;;;0.59;100.00;95132.41;5091111;28;20785;-64
2021/11/29 01:16:40;;;;;;;18.65;14.85;;;;;;;0.69;100.00;95133.53;5091107;28;20386;-64
2021/11/29 01:19:05;;;;;;;18.63;14.75;;;;;;;0.61;100.00;95143.31;5110534;28;20397;-64
2021/11/29 01:21:31;;;;;;;22.55;15.18;;;;;;;0.55;100.00;95152.66;5102907;28;20394;-64
2021/11/29 01:23:56;;;;;;;20.50;14.87;;;;;;;0.56;100.00;95149.06;5090727;28;20394;-65
2021/11/29 01:26:22;;;;;;;21.03;14.87;;;;;;;0.64;100.00;95154.00;5090497;28;20406;-64
2021/11/29 01:28:47;;;;;;;20.35;15.43;;;;;;;0.65;100.00;95157.38;5097068;28;20402;-64
2021/11/29 01:31:13;;;;;;;23.07;16.50;;;;;;;0.81;100.00;95157.69;5109920;28;20389;-64
2021/11/29 01:33:38;;;;;;;22.50;16.27;;;;;;;0.72;100.00;95151.19;5112031;28;20407;-64
2021/11/29 01:36:04;;;;;;;21.97;16.13;;;;;;;0.63;100.00;95155.00;5113457;28;21121;-67
2021/11/29 01:38:30;;;;;;;21.25;16.30;;;;;;;0.58;100.00;95157.38;5099210;28;20484;-66
2021/11/29 01:40:55;;;;;;;23.77;16.60;;;;;;;0.77;100.00;95159.09;5093925;28;20487;-66
2021/11/29 01:43:21;;;;;;;23.27;16.27;;;;;;;0.65;100.00;95155.59;5112756;28;20396;-65
2021/11/29 01:45:53;;;;;;;22.95;16.65;;;;;;;0.71;100.00;95157.34;5113908;28;20415;-65
2021/11/29 01:48:19;;;;;;;24.35;16.88;;;;;;;0.76;100.00;95159.31;5113969;28;20484;-64
2021/11/29 01:50:47;;;;;;;23.87;17.00;;;;;;;0.72;100.00;95166.66;5113289;28;20400;-64
2021/11/29 01:53:13;;;;;;;24.63;17.42;;;;;;;0.87;100.00;95166.38;5109330;28;20756;-64
2021/11/29 01:55:40;;;;;;;22.80;17.02;;;;;;;0.92;100.00;95181.25;5094036;28;20455;-64
2021/11/29 01:58:06;;;;;;;24.02;17.10;;;;;;;1.01;100.00;95173.06;5113041;28;20759;-64
2021/11/29 02:00:36;;;;;;;22.63;17.15;;;;;;;1.02;100.00;95179.78;5113839;28;20407;-64
2021/11/29 02:03:02;;;;;;;22.30;16.50;;;;;;;0.91;100.00;95179.66;5095867;28;20409;-64
2021/11/29 02:05:28;;;;;;;20.95;15.48;;;;;;;0.92;100.00;95176.09;5105237;28;20457;-63
2021/11/29 02:07:54;;;;;;;20.80;15.87;;;;;;;0.84;100.00;95185.63;5093916;28;20410;-64
2021/11/29 02:10:22;;;;;;;22.20;15.80;;;;;;;0.55;100.00;95188.75;5094959;28;20390;-65
2021/11/29 02:12:48;;;;;;;21.23;14.73;;;;;;;0.52;100.00;95183.19;5093642;28;20501;-63
2021/11/29 02:15:14;;;;;;;21.52;15.55;;;;;;;0.69;100.00;95186.88;5113453;28;20831;-64
2021/11/29 02:17:41;;;;;;;22.05;16.13;;;;;;;0.67;100.00;95187.09;5113206;28;20491;-64
2021/11/29 02:20:14;;;;;;;22.95;16.67;;;;;;;0.79;100.00;95193.19;5103788;28;20390;-64
2021/11/29 02:22:40;;;;;;;22.48;16.17;;;;;;;0.72;100.00;95191.66;5083088;28;20909;-63
2021/11/29 02:25:07;;;;;;;23.77;17.02;;;;;;;0.82;100.00;95194.59;5093303;28;20882;-64
2021/11/29 02:27:35;;;;;;;27.65;18.17;;;;;;;0.71;100.00;95195.22;5094137;28;20484;-64
2021/11/29 02:30:01;;;;;;;23.47;17.47;;;;;;;0.78;100.00;95191.59;5093130;28;20394;-63
2021/11/29 02:32:26;;;;;;;25.08;17.20;;;;;;;0.81;100.00;95195.56;5103289;28;20411;-62
2021/11/29 02:34:52;;;;;;;24.40;17.87;;;;;;;0.69;100.00;95197.19;5112496;28;20412;-62
2021/11/29 02:37:17;;;;;;;26.73;18.63;;;;;;;0.77;100.00;95195.19;5095004;28;20401;-62
2021/11/29 02:39:43;;;;;;;25.90;17.55;;;;;;;0.91;100.00;95210.59;5074680;28;20394;-63
2021/11/29 02:42:12;;;;;;;25.48;18.63;;;;;;;0.56;100.00;95202.44;5100412;28;20528;-62
2021/11/29 02:44:39;;;;;;;25.00;18.37;;;;;;;0.81;100.00;95218.78;5112743;28;20400;-63
2021/11/29 02:47:05;;;;;;;26.23;19.00;;;;;;;0.76;100.00;95208.28;5110897;28;20868;-65
2021/11/29 02:49:31;;;;;;;27.45;19.13;;;;;;;0.86;100.00;95216.38;5110132;28;20403;-62
2021/11/29 02:52:00;;;;;;;28.10;19.73;;;;;;;0.63;100.00;95221.22;5098010;28;20883;-62
2021/11/29 02:54:30;;;;;;;27.45;19.85;;;;;;;0.68;100.00;95226.56;5112408;28;20408;-63
2021/11/29 02:56:59;;;;;;;27.83;19.85;;;;;;;0.68;100.00;95229.94;5112283;28;20396;-63
2021/11/29 02:59:28;;;;;;;29.00;19.83;;;;;;;0.80;100.00;95230.09;5112038;28;20399;-63
2021/11/29 03:01:56;;;;;;;25.38;19.02;;;;;;;0.41;100.00;95234.38;5105814;28;20432;-63
2021/11/29 03:04:24;;;;;;;27.45;20.05;;;;;;;0.41;100.00;95241.28;5107089;28;20424;-63
2021/11/29 03:06:49;;;;;;;30.53;20.80;;;;;;;0.57;100.00;95242.66;5110825;28;20451;-64
2021/11/29 03:09:15;;;;;;;29.80;20.57;;;;;;;0.52;100.00;95245.84;5112769;28;20801;-64
2021/11/29 03:11:40;;;;;;;29.57;20.90;;;;;;;0.70;100.00;95246.00;5095062;28;20484;-63
2021/11/29 03:14:07;;;;;;;32.17;21.83;;;;;;;0.54;100.00;95248.22;5074157;28;20398;-63
2021/11/29 03:16:33;;;;;;;32.10;22.05;;;;;;;0.64;100.00;95259.69;5099467;28;20480;-63
2021/11/29 03:18:59;;;;;;;30.35;21.48;;;;;;;0.58;100.00;95257.13;5101472;28;20463;-64
2021/11/29 03:21:26;;;;;;;32.63;21.70;;;;;;;0.71;100.00;95262.25;5105541;28;20428;-64
2021/11/29 03:23:55;;;;;;;33.15;22.63;;;;;;;0.63;100.00;95262.47;5111024;28;20392;-64
2021/11/29 03:26:23;;;;;;;29.88;21.15;;;;;;;0.78;100.00;95268.19;5110980;28;20804;-64
2021/11/29 03:28:54;;;;;;;33.13;22.15;;;;;;;0.68;100.00;95260.84;5103093;28;20420;-64
2021/11/29 03:31:22;;;;;;;29.17;21.40;;;;;;;0.67;100.00;95264.44;5105603;28;20380;-63
2021/11/29 03:33:47;;;;;;;29.63;19.87;;;;;;;0.65;100.00;95270.78;5092965;28;20789;-64
2021/11/29 03:36:14;;;;;;;26.33;18.48;;;;;;;0.66;100.00;95262.06;5108542;28;20401;-64
2021/11/29 03:38:40;;;;;;;25.73;18.42;;;;;;;0.67;100.00;95268.81;5091946;28;20390;-63
2021/11/29 03:41:08;;;;;;;26.17;19.63;;;;;;;0.77;100.00;95269.97;5091760;28;20405;-63
2021/11/29 03:43:33;;;;;;;27.90;19.08;;;;;;;0.84;100.00;95269.94;5099258;28;20534;-63
2021/11/29 03:45:59;;;;;;;22.95;17.30;;;;;;;0.46;100.00;95269.84;5091727;28;20591;-63
2021/11/29 03:48:25;;;;;;;25.75;18.88;;;;;;;0.46;100.00;95280.13;5098014;28;20392;-63
2021/11/29 03:50:51;;;;;;;24.58;18.08;;;;;;;0.37;100.00;95269.25;5111536;28;20856;-67
2021/11/29 03:53:17;;;;;;;27.10;19.58;;;;;;;0.52;100.00;95276.75;5096534;28;20481;-63
2021/11/29 03:55:43;;;;;;;26.17;18.42;;;;;;;0.58;100.00;95281.13;5108985;28;20775;-63
2021/11/29 03:58:08;;;;;;;27.95;18.83;;;;;;;0.65;100.00;95289.63;5092936;28;20445;-63
2021/11/29 04:00:34;;;;;;;27.23;18.93;;;;;;;0.61;100.00;95301.34;5111500;28;20899;-63
2021/11/29 04:02:59;;;;;;;26.95;18.35;;;;;;;0.63;100.00;95308.84;5103055;28;20477;-63
2021/11/29 04:05:25;;;;;;;25.65;18.80;;;;;;;0.71;100.00;95306.88;5075556;28;20422;-64
2021/11/29 04:07:50;;;;;;;26.55;18.65;;;;;;;0.65;100.00;95306.88;5091185;28;20467;-63
2021/11/29 04:10:16;;;;;;;29.50;19.40;;;;;;;0.80;100.00;95305.66;5091212;28;20440;-65
2021/11/29 04:12:42;;;;;;;25.23;17.73;;;;;;;0.77;100.00;95305.28;5100598;28;20407;-63
2021/11/29 04:15:09;;;;;;;25.53;18.07;;;;;;;0.83;100.00;95315.59;5111222;28;20396;-64
2021/11/29 04:17:35;;;;;;;25.23;17.33;;;;;;;1.05;100.00;95310.94;5110958;28;20495;-64
2021/11/29 04:20:02;;;;;;;24.23;17.90;;;;;;;1.08;100.00;95320.06;5094649;28;20475;-63
2021/11/29 04:22:27;;;;;;;26.92;19.63;;;;;;;0.89;100.00;95319.13;5104539;28;20381;-64
2021/11/29 04:24:53;;;;;;;27.42;18.02;;;;;;;0.96;100.00;95319.88;5091365;28;20896;-64
2021/11/29 04:27:19;;;;;;;24.00;17.37;;;;;;;1.06;100.00;95328.00;5091304;28;20872;-63
2021/11/29 04:29:46;;;;;;;25.52;18.10;;;;;;;1.19;100.00;95332.31;5091105;28;20766;-63
2021/11/29 04:32:12;;;;;;;24.80;17.30;;;;;;;1.03;100.00;95327.63;5095793;28;20742;-65
2021/11/29 04:34:39;;;;;;;25.67;18.57;;;;;;;1.07;100.00;95331.38;5084090;28;20435;-63
2021/11/29 04:37:05;;;;;;;27.73;18.00;;;;;;;1.01;100.00;95338.13;5102542;28;20392;-63
2021/11/29 04:39:33;;;;;;;28.27;18.90;;;;;;;1.12;100.00;95332.34;5110930;28;20484;-63
2021/11/29 04:42:01;;;;;;;26.75;18.45;;;;;;;1.25;100.00;95341.84;5110265;28;20395;-63
2021/11/29 04:44:27;;;;;;;25.98;17.88;;;;;;;1.07;100.00;95337.31;5085985;28;20390;-63
2021/11/29 04:46:53;;;;;;;27.85;18.05;;;;;;;1.00;100.00;95335.78;5082209;28;20403;-63
2021/11/29 04:49:18;;;;;;;28.77;18.63;;;;;;;0.98;100.00;95342.91;5110824;28;20399;-63
2021/11/29 04:51:44;;;;;;;28.13;19.30;;;;;;;0.94;100.00;95347.69;5093694;28;20406;-63
2021/11/29 04:54:10;;;;;;;26.63;18.63;;;;;;;0.76;100.00;95345.75;5109997;28;20469;-63
2021/11/29 04:56:37;;;;;;;27.52;18.25;;;;;;;0.80;100.00;95354.66;5110586;28;20494;-64
2021/11/29 04:59:03;;;;;;;26.77;17.83;;;;;;;0.89;100.00;95359.59;5097113;28;20394;-64
2021/11/29 05:01:28;;;;;;;25.50;17.57;;;;;;;0.85;100.00;95359.19;5107383;28;20404;-63
2021/11/29 05:03:54;;;;;;;25.43;16.33;;;;;;;0.82;100.00;95369.94;5109542;28;20428;-63
2021/11/29 05:06:19;;;;;;;26.80;16.92;;;;;;;0.78;100.00;95366.16;5114573;28;20434;-63
2021/11/29 05:08:45;;;;;;;29.90;17.58;;;;;;;0.91;100.00;95370.50;5114988;28;20876;-63
2021/11/29 05:11:11;;;;;;;27.08;17.40;;;;;;;1.07;100.00;95373.44;5101374;28;20893;-63
2021/11/29 05:13:37;;;;;;;24.75;16.60;;;;;;;0.97;100.00;95364.53;5114609;28;20556;-63
2021/11/29 05:16:02;;;;;;;24.40;16.05;;;;;;;0.96;100.00;95371.47;5106702;28;20408;-63
2021/11/29 05:18:28;;;;;;;25.60;17.50;;;;;;;0.88;100.00;95374.28;5076399;28;20385;-63
2021/11/29 05:20:54;;;;;;;25.75;17.33;;;;;;;0.92;100.00;95378.03;5109697;28;20414;-64
2021/11/29 05:23:19;;;;;;;25.08;16.67;;;;;;;0.99;100.00;95386.56;5114236;28;20388;-63
2021/11/29 05:25:45;;;;;;;26.55;17.42;;;;;;;0.97;100.00;95380.81;5108578;28;20743;-63
2021/11/29 05:28:11;;;;;;;22.90;16.17;;;;;;;0.74;100.00;95386.38;5107261;28;20399;-63
2021/11/29 05:30:37;;;;;;;25.83;17.70;;;;;;;0.82;100.00;95398.28;5114452;28;20465;-63
2021/11/29 05:33:03;;;;;;;24.35;16.90;;;;;;;1.01;100.00;95394.06;5096283;28;20850;-63
2021/11/29 05:35:28;;;;;;;24.15;16.80;;;;;;;0.83;100.00;95398.09;5109862;28;20908;-63
2021/11/29 05:37:54;;;;;;;27.42;17.48;;;;;;;0.78;100.00;95405.63;5094318;28;20406;-63
2021/11/29 05:40:20;;;;;;;26.65;18.45;;;;;;;0.91;100.00;95397.06;5094506;28;20422;-64
2021/11/29 05:42:46;;;;;;;25.77;17.60;;;;;;;0.78;100.00;95410.78;5094068;28;20493;-63
2021/11/29 05:45:13;;;;;;;26.20;17.50;;;;;;;0.83;100.00;95413.56;5095381;28;20495;-63
2021/11/29 05:47:39;;;;;;;24.80;17.23;;;;;;;1.04;100.00;95417.72;5090413;28;20382;-64
2021/11/29 05:50:07;;;;;;;24.13;17.63;;;;;;;0.80;100.00;95420.91;5094074;28;20854;-63
2021/11/29 05:52:33;;;;;;;24.65;16.58;;;;;;;0.78;100.00;95422.91;5093601;28;20397;-63
2021/11/29 05:54:59;;;;;;;23.65;16.65;;;;;;;0.77;100.00;95442.72;5093556;28;20432;-63
2021/11/29 05:57:25;;;;;;;23.93;17.27;;;;;;;0.79;100.00;95442.50;5113090;28;20428;-63
2021/11/29 05:59:50;;;;;;;26.77;16.85;;;;;;;0.95;100.00;95434.38;5110700;28;20845;-61
2021/11/29 06:02:16;;;;;;;24.67;16.70;;;;;;;0.90;100.00;95435.97;5111698;28;20483;-61
2021/11/29 06:04:41;;;;;;;24.47;16.90;;;;;;;1.00;100.00;95444.91;5110683;28;20459;-62
2021/11/29 06:07:07;;;;;;;23.73;16.67;;;;;;;0.90;100.00;95444.50;5113513;28;20404;-62
2021/11/29 06:09:33;;;;;;;25.40;17.45;;;;;;;0.76;100.00;95458.41;5113168;28;20882;-63
2021/11/29 06:11:58;;;;;;;23.58;16.83;;;;;;;0.83;100.00;95461.78;5111931;28;20983;-63
2021/11/29 06:14:26;;;;;;;25.53;17.20;;;;;;;0.70;100.00;95461.75;5113133;28;20388;-64
2021/11/29 06:16:53;;;;;;;24.95;17.42;;;;;;;0.71;100.00;95464.16;5113121;28;20689;-63
2021/11/29 06:19:19;;;;;;;25.25;17.52;;;;;;;0.91;100.00;95471.06;5111977;28;20851;-63
2021/11/29 06:21:44;;;;;;;20.50;14.88;;;;;;;0.62;100.00;95472.25;5103140;28;20472;-62
2021/11/29 06:24:10;;;;;;;22.80;15.15;;;;;;;0.51;100.00;95470.25;5093302;28;20390;-63
2021/11/29 06:26:36;;;;;;;22.92;15.55;;;;;;;0.38;100.00;95471.84;5093096;28;20398;-63
2021/11/29 06:29:01;;;;;;;21.55;14.73;;;;;;;0.48;100.00;95475.81;5093203;28;20886;-65
2021/11/29 06:31:27;;;;;;;20.80;14.88;;;;;;;0.59;100.00;95485.53;5094991;28;20425;-63
2021/11/29 06:33:52;;;;;;;18.67;13.43;;;;;;;0.50;100.00;95491.88;5099955;28;20388;-63
2021/11/29 06:36:18;;;;;;;19.70;13.93;;;;;;;0.38;100.00;95499.41;5074814;28;20390;-63
2021/11/29 06:38:46;;;;;;;21.63;14.50;;;;;;;0.61;100.00;95501.63;5092687;28;20426;-63
2021/11/29 06:41:12;;;;;;;20.33;13.95;;;;;;;0.52;100.00;95495.84;5107462;28;20538;-64
2021/11/29 06:43:37;;;;;;;19.20;13.52;;;;;;;0.44;100.00;95506.34;5074877;28;20386;-63
2021/11/29 06:46:03;;;;;;;19.03;13.50;;;;;;;0.59;100.00;95512.13;5105371;28;20408;-63
2021/11/29 06:48:29;;;;;;;20.02;13.40;;;;;;;0.55;100.00;95510.94;5109427;28;20493;-66
2021/11/29 06:50:56;;;;;;;22.17;13.93;;;;;;;0.57;100.00;95511.50;5113210;28;20742;-62
2021/11/29 06:53:23;;;;;;;20.55;13.27;;;;;;;0.59;100.00;95517.28;5102667;28;20389;-62
2021/11/29 06:55:48;;;;;;;21.10;13.75;;;;;;;0.72;100.00;95522.47;5092884;28;20477;-63
2021/11/29 06:58:14;;;;;;;21.95;14.02;;;;;;;0.58;100.00;95526.00;5093057;28;20481;-62
2021/11/29 07:00:40;;;;;;;19.30;12.50;;;;;;;0.58;100.00;95530.34;5093425;28;20462;-63
2021/11/29 07:03:06;;;;;;;18.23;12.75;;;;;;;0.58;100.00;95538.88;5100800;28;20768;-63
2021/11/29 07:05:32;;;;;;;18.77;13.33;;;;;;;0.74;100.00;95542.88;5111089;28;20423;-62
2021/11/29 07:07:58;;;;;;;17.88;12.32;;;;;;;0.60;100.00;95546.44;5109849;28;20463;-63
2021/11/29 07:10:25;;;;;;;18.57;13.30;;;;;;;0.83;100.00;95552.03;5113759;28;20384;-63
2021/11/29 07:12:53;;;;;;;17.02;12.23;;;;;;;0.58;100.00;95553.56;5112447;28;20396;-60
2021/11/29 07:15:19;;;;;;;17.60;12.07;;;;;;;0.69;100.00;95565.88;5103741;28;20394;-61
2021/11/29 07:17:45;;;;;;;16.00;11.48;;;;;;;0.45;100.00;95572.34;5104014;28;20450;-61
2021/11/29 07:20:11;;;;;;;19.97;11.00;;;;;;;0.31;100.00;95574.09;5103741;28;20394;-60
2021/11/29 07:22:37;;;;;;;15.10;10.37;;;;;;;0.51;100.00;95586.25;5093060;28;20400;-61
2021/11/29 07:25:04;;;;;;;15.97;11.53;;;;;;;0.37;100.00;95590.56;5108351;28;20395;-63
2021/11/29 07:27:32;;;;;;;15.50;10.68;;;;;;;0.49;100.00;95589.03;5109111;28;20405;-60
2021/11/29 07:29:59;;;;;;;15.85;10.30;;;;;;;0.46;100.00;95588.59;5101327;28;20455;-61
2021/11/29 07:32:25;;;;;;;13.68;9.57;;;;;;;0.54;100.00;95596.97;5111768;28;20963;-61
2021/11/29 07:34:51;;;;;;;15.10;10.23;;;;;;;0.53;100.00;95602.31;5109002;28;20401;-59
2021/11/29 07:37:19;;;;;;;15.18;10.45;;;;;;;0.65;100.00;95605.94;5111979;28;20388;-61
2021/11/29 07:39:47;;;;;;;12.80;9.85;;;;;;;0.48;100.00;95615.00;5098623;28;20405;-61
2021/11/29 07:42:12;;;;;;;14.13;8.98;;;;;;;0.89;100.00;95612.34;5107345;28;20494;-64
2021/11/29 07:44:39;;;;;;;23.80;13.77;;;;;;;1.65;100.00;95616.19;5093233;28;20394;-59
2021/11/29 07:47:05;;;;;;;10.57;7.93;;;;;;;1.12;100.00;95630.81;5086090;28;20475;-60
2021/11/29 07:49:31;;;;;;;10.85;8.05;;;;;;;1.00;99.40;95630.63;5096348;28;20398;-61
2021/11/29 07:51:57;;;;;;;12.65;8.98;;;;;;;0.80;100.00;95635.72;5089702;28;20434;-59
2021/11/29 07:54:22;;;;;;;11.48;8.35;;;;;;;0.70;100.00;95634.50;5083778;28;20763;-60
2021/11/29 07:56:48;;;;;;;13.53;8.53;;;;;;;0.81;99.42;95642.47;5105182;28;20874;-60
2021/11/29 07:59:13;;;;;;;11.57;8.27;;;;;;;0.75;100.00;95645.81;5097652;28;20394;-59
2021/11/29 08:01:39;;;;;;;11.55;8.35;;;;;;;0.66;100.00;95653.94;5107368;28;20760;-60
2021/11/29 08:04:04;;;;;;;12.00;8.32;;;;;;;0.78;99.28;95650.59;5101758;28;20568;-59
2021/11/29 08:06:30;;;;;;;11.30;7.43;;;;;;;0.69;99.74;95656.09;5092602;28;20407;-59
2021/11/29 08:08:56;;;;;;;14.07;8.13;;;;;;;0.41;100.00;95657.00;5091619;28;20397;-60
2021/11/29 08:11:22;;;;;;;10.18;7.82;;;;;;;0.52;100.00;95658.22;5098592;28;20458;-57
2021/11/29 08:13:48;;;;;;;13.67;7.57;;;;;;;0.62;100.00;95663.00;5091778;28;20417;-58
2021/11/29 08:16:14;;;;;;;9.68;7.32;;;;;;;0.62;100.00;95665.59;5089119;28;20388;-60
2021/11/29 08:18:39;;;;;;;11.07;7.30;;;;;;;0.60;100.00;95668.38;5092130;28;20437;-60
2021/11/29 08:21:05;;;;;;;8.90;6.90;;;;;;;0.60;100.00;95663.22;5090944;28;20437;-60
2021/11/29 08:23:31;;;;;;;9.30;6.97;;;;;;;0.65;99.32;95676.34;5091000;28;20390;-60
2021/11/29 08:25:57;;;;;;;13.38;7.03;;;;;;;0.67;99.60;95678.72;5094963;28;20426;-56
2021/11/29 08:28:23;;;;;;;9.82;6.90;;;;;;;0.56;99.40;95677.47;5091498;28;21073;-61
2021/11/29 08:30:48;;;;;;;8.20;6.90;;;;;;;0.70;99.60;95678.34;5105808;28;20400;-60
2021/11/29 08:33:15;;;;;;;13.03;7.30;;;;;;;0.79;98.88;95692.63;5100180;28;20390;-61
2021/11/29 08:35:42;;;;;;;10.80;7.40;;;;;;;0.75;98.77;95694.81;5097260;28;20397;-60
2021/11/29 08:38:08;;;;;;;11.60;7.40;;;;;;;0.94;99.20;95702.84;5107911;28;20482;-61
2021/11/29 08:40:34;;;;;;;9.25;6.65;;;;;;;1.13;97.30;95704.66;5109724;28;20481;-61
2021/11/29 08:43:07;;;;;;;9.23;6.67;;;;;;;1.21;95.98;95705.28;5105342;28;20463;-60
2021/11/29 08:45:33;;;;;;;10.90;7.10;;;;;;;1.40;95.71;95714.06;5101509;28;20531;-60
2021/11/29 08:48:02;;;;;;;11.40;7.43;;;;;;;1.38;96.45;95712.69;5098609;28;20391;-59
2021/11/29 08:50:28;;;;;;;9.52;6.40;;;;;;;1.48;94.41;95721.63;5110033;28;20380;-60
2021/11/29 08:52:53;;;;;;;9.80;6.03;;;;;;;1.64;94.86;95721.25;5094339;28;20410;-60
2021/11/29 08:55:20;;;;;;;10.90;5.80;;;;;;;1.87;94.88;95726.03;5094653;28;20417;-61
2021/11/29 08:57:45;;;;;;;7.38;5.65;;;;;;;1.94;92.06;95720.88;5110381;28;20741;-60
2021/11/29 09:00:16;;;;;;;7.43;5.70;;;;;;;1.76;92.43;95734.38;5113373;28;20437;-60
2021/11/29 09:02:42;;;;;;;8.77;6.32;;;;;;;1.82;93.02;95718.09;5114265;28;20400;-61
2021/11/29 09:05:09;;;;;;;7.40;5.72;;;;;;;1.48;92.71;95726.00;5078914;28;20434;-59
2021/11/29 09:07:34;;;;;;;7.83;5.37;;;;;;;1.49;92.31;95733.56;5073756;28;20414;-61
2021/11/29 09:10:00;;;;;;;7.53;5.37;;;;;;;1.38;92.53;95734.13;5087800;28;20401;-61
2021/11/29 09:12:26;;;;;;;7.53;5.57;;;;;;;1.42;92.28;95737.09;5090065;28;20488;-60
2021/11/29 09:14:52;;;;;;;7.63;5.23;;;;;;;1.37;93.77;95734.31;5085479;28;20474;-60
2021/11/29 09:17:18;;;;;;;7.40;5.53;;;;;;;1.53;92.55;95744.28;5094819;28;20385;-61
2021/11/29 09:19:43;;;;;;;7.68;5.75;;;;;;;1.52;92.56;95746.06;5077049;28;20383;-60
2021/11/29 09:22:09;;;;;;;9.07;5.55;;;;;;;1.50;92.67;95755.00;5092414;28;20400;-60
2021/11/29 09:24:34;;;;;;;8.63;5.57;;;;;;;1.48;91.73;95752.59;5093760;28;20389;-60
2021/11/29 09:27:01;;;;;;;7.90;5.47;;;;;;;1.42;93.02;95763.72;5076015;28;20414;-60
2021/11/29 09:29:27;;;;;;;6.95;5.70;;;;;;;1.42;93.17;95763.72;5073641;28;20400;-61
2021/11/29 09:31:53;;;;;;;9.27;5.40;;;;;;;1.61;92.82;95762.19;5088580;28;20391;-60
2021/11/29 09:34:19;;;;;;;8.03;5.53;;;;;;;1.88;91.96;95765.59;5086225;28;20402;-61
2021/11/29 09:36:45;;;;;;;7.60;5.10;;;;;;;1.86;92.09;95770.94;5082905;28;20442;-61
2021/11/29 09:39:10;;;;;;;8.40;5.10;;;;;;;1.86;89.49;95765.78;5075151;28;20889;-61
2021/11/29 09:41:38;;;;;;;7.28;5.03;;;;;;;1.88;90.27;95765.59;5080985;28;20518;-60
2021/11/29 09:44:04;;;;;;;6.28;4.30;;;;;;;1.78;90.69;95767.78;5075862;28;20422;-57
2021/11/29 09:46:30;;;;;;;5.10;4.00;;;;;;;1.93;88.78;95776.13;5080892;28;20406;-61
2021/11/29 09:48:56;;;;;;;6.15;4.05;;;;;;;1.82;89.30;95785.25;5085273;28;20408;-62
2021/11/29 09:51:21;;;;;;;7.65;4.20;;;;;;;1.95;88.20;95781.91;5073384;28;20399;-62
2021/11/29 09:53:47;;;;;;;5.47;3.72;;;;;;;1.99;88.46;95776.13;5073829;28;20392;-62
2021/11/29 09:56:13;;;;;;;6.28;4.28;;;;;;;2.02;89.02;95785.25;5074634;28;20420;-62
2021/11/29 09:58:38;;;;;;;4.90;3.65;;;;;;;2.18;88.32;95784.06;5091769;28;20766;-60
2021/11/29 10:01:05;;;;;;;4.97;3.73;;;;;;;2.54;86.80;95783.66;5084170;28;20399;-59
2021/11/29 10:03:31;;;;;;;4.18;3.28;;;;;;;2.39;85.62;95789.88;5080007;28;20777;-61
2021/11/29 10:05:58;;;;;;;6.13;3.47;;;;;;;2.07;86.03;95788.84;5105688;28;20436;-59
2021/11/29 10:08:25;;;;;;;4.67;3.70;;;;;;;2.15;87.32;95794.81;5099211;28;20395;-59
2021/11/29 10:10:53;;;;;;;4.07;3.25;;;;;;;2.27;87.93;95791.44;5109127;28;20405;-60
2021/11/29 10:13:21;;;;;;;5.90;3.40;;;;;;;2.23;87.86;95789.47;5097419;28;20937;-59
2021/11/29 10:15:48;;;;;;;6.30;3.60;;;;;;;2.42;86.56;95789.44;5113294;28;20403;-60
2021/11/29 10:18:19;;;;;;;5.38;3.60;;;;;;;2.40;87.25;95799.19;5112924;28;20399;-59
2021/11/29 10:20:44;;;;;;;5.47;3.65;;;;;;;2.54;87.45;95804.34;5111786;28;20453;-60
2021/11/29 10:23:13;;;;;;;5.80;3.60;;;;;;;2.95;86.38;95802.31;5104288;28;20731;-59
2021/11/29 10:25:43;;;;;;;5.65;3.28;;;;;;;3.14;83.92;95804.03;5093766;28;20890;-57
2021/11/29 10:28:22;;;;;;;5.43;3.28;;;;;;;3.21;83.00;95804.03;5093065;28;20402;-60
2021/11/29 10:31:23;;;;;;;4.30;3.25;;;;;;;3.25;83.38;95800.00;5093248;28;20752;-60
2021/11/29 10:33:50;;;;;;;3.72;2.92;;;;;;;3.07;82.19;95805.03;5082334;28;20414;-60
2021/11/29 10:36:18;;;;;;;7.20;3.38;;;;;;;2.84;82.01;95805.53;5112466;28;20400;-63
2021/11/29 10:38:48;;;;;;;4.63;3.50;;;;;;;2.89;82.72;95798.75;5098435;28;20484;-60
2021/11/29 10:41:14;;;;;;;4.60;3.00;;;;;;;3.17;82.59;95805.44;5094623;28;20494;-60
2021/11/29 10:43:42;;;;;;;4.55;2.90;;;;;;;3.75;82.45;95806.94;5109568;28;20856;-60
2021/11/29 10:46:24;;;;;;;6.57;3.22;;;;;;;3.68;81.01;95805.38;5093609;28;20410;-60
2021/11/29 10:48:52;;;;;;;4.43;3.00;;;;;;;3.24;82.21;95801.81;5104704;28;20391;-60
2021/11/29 10:51:19;;;;;;;5.27;3.13;;;;;;;3.54;83.01;95804.69;5092941;28;20554;-60
2021/11/29 10:53:49;;;;;;;5.10;2.80;;;;;;;3.21;80.43;95804.81;5106750;28;20386;-60
2021/11/29 10:56:15;;;;;;;4.18;2.70;;;;;;;3.51;80.31;95810.25;5074006;28;20504;-60
2021/11/29 10:58:43;;;;;;;5.25;3.10;;;;;;;3.63;80.32;95813.00;5092631;28;21000;-60
2021/11/29 11:01:10;;;;;;;4.33;3.00;;;;;;;3.53;81.89;95816.03;5104754;28;20408;-60
2021/11/29 11:03:55;;;;;;;4.65;3.10;;;;;;;3.64;79.57;95825.75;5097695;28;20405;-62
2021/11/29 11:06:30;;;;;;;5.63;3.00;;;;;;;3.49;81.20;95833.00;5093435;28;20829;-61
2021/11/29 11:08:56;;;;;;;4.47;3.00;;;;;;;3.28;83.02;95841.84;5098537;28;20391;-61
2021/11/29 11:11:32;;;;;;;4.50;3.00;;;;;;;3.79;79.89;95835.81;5098712;28;20400;-61
2021/11/29 11:14:01;;;;;;;5.85;3.22;;;;;;;2.67;81.53;95841.38;5092531;28;20390;-60
2021/11/29 11:16:49;;;;;;;5.15;3.13;;;;;;;2.66;83.43;95836.38;5092401;28;20386;-60
2021/11/29 11:19:22;;;;;;;4.07;3.47;;;;;;;2.47;85.88;95840.56;5101081;28;20888;-61
2021/11/29 11:21:48;;;;;;;10.27;4.20;;;;;;;2.80;85.55;95837.94;5090551;28;20469;-60